Latest Coastal Weather Observations for Cape Ferguson

IDQ60701

Issued at 2:32 am EST Monday 25 July 2016 (issued every 10 minutes, with the page automatically refreshed every 10 minutes)

About coastal observations | Map of coastal stations | Coastal observations for QLD | Marine services | Other Formats
Station Details ID: 032182 Name: CAPE FERGUSON NTC AWS Lat: -19.28 Lon: 147.06 Height: 0.0 m
Data from the previous 72 hours. | See also: Recent months for locations in Queensland
Date/Time
EST
Temp
°C
Wind Pressure Rain since
9am
mm
Weather Cloud Vis
km
Sea
Height
m
Swell
Dir  Spd
kts
Gust
kts
hPa Trend Height
m
Period
s
Dir
25/02:30am 20.3 WNW 2 2 1014.7 - - - - - - - - -
25/02:00am 20.5 WNW 2 2 1015.0 - - - - - - - - -
25/01:30am 20.4 WNW 2 3 1015.0 - - - - - - - - -
25/01:00am 20.1 WNW 3 3 1015.2 - - - - - - - - -
25/12:30am 21.1 WSW 1 2 1015.3 - - - - - - - - -
25/12:00am 20.2 WNW 2 3 1015.3 - - - - - - - - -
 
Date/Time
EST
Temp
°C
Wind Pressure Rain since
9am
mm
Weather Cloud Vis
km
Sea
Height
m
Swell
Dir  Spd
kts
Gust
kts
hPa Trend Height
m
Period
s
Dir
24/11:30pm 21.2 CALM 0 0 1015.3 - - - - - - - - -
24/11:00pm 20.1 WNW 3 3 1015.5 - - - - - - - - -
24/10:30pm 20.6 WNW 3 4 1015.5 - - - - - - - - -
24/10:00pm 21.3 NW 1 2 1015.6 - - - - - - - - -
24/09:30pm 21.0 NW 1 2 1015.4 - - - - - - - - -
24/09:00pm 21.9 NW 2 3 1015.3 - - - - - - - - -
24/08:30pm 21.6 W 2 3 1015.2 - - - - - - - - -
24/08:00pm 21.3 NW 2 3 1014.9 - - - - - - - - -
24/07:30pm 22.3 CALM 0 1 1014.5 - - - - - - - - -
24/07:00pm 22.8 NNW 2 3 1014.3 - - - - - - - - -
24/06:30pm 23.4 NNW 2 3 1014.2 - - - - - - - - -
24/06:00pm 23.6 NNE 6 8 1014.0 - - - - - - - - -
24/05:30pm 23.9 NNE 6 8 1013.7 - - - - - - - - -
24/05:00pm 24.5 NNE 4 8 1013.6 - - - - - - - - -
24/04:30pm 24.7 NE 4 9 1013.4 - - - - - - - - -
24/04:00pm 24.7 NE 4 9 1013.1 - - - - - - - - -
24/03:30pm 24.7 NE 6 11 1013.1 - - - - - - - - -
24/03:00pm 24.6 NE 4 9 1013.3 - - - - - - - - -
24/02:30pm 24.6 NNE 5 9 1013.6 - - - - - - - - -
24/02:00pm 24.1 NNE 5 9 1013.9 - - - - - - - - -
24/01:30pm 23.8 ENE 6 9 1014.1 - - - - - - - - -
24/01:00pm 23.4 ENE 6 7 1014.6 - - - - - - - - -
24/12:30pm 23.3 ENE 5 7 1014.8 - - - - - - - - -
24/12:00pm 23.1 E 5 6 1015.5 - - - - - - - - -
24/11:30am 22.8 E 5 6 1015.7 - - - - - - - - -
24/11:00am 22.8 E 4 5 1016.0 - - - - - - - - -
24/10:30am 22.5 ESE 4 5 1016.3 - - - - - - - - -
24/10:00am 22.2 ESE 3 4 1016.4 - - - - - - - - -
24/09:30am 21.6 SSE 2 2 1016.5 - - - - - - - - -
24/09:00am 21.1 SSE 2 2 1016.3 - - - - - - - - -
24/08:30am 20.8 SW 1 3 1016.2 - - - - - - - - -
24/08:00am 20.0 WNW 3 4 1015.9 - - - - - - - - -
24/07:30am 19.7 WNW 1 2 1015.6 - - - - - - - - -
24/07:00am 19.6 W 2 3 1015.2 - - - - - - - - -
24/06:30am 19.7 WNW 2 2 1014.9 - - - - - - - - -
24/06:00am 19.3 WNW 3 3 1014.7 - - - - - - - - -
24/05:30am 20.2 WNW 2 3 1014.3 - - - - - - - - -
24/05:00am 19.6 WNW 2 3 1014.2 - - - - - - - - -
24/04:30am 20.6 NW 2 3 1014.0 - - - - - - - - -
24/04:00am 19.7 WNW 2 3 1013.8 - - - - - - - - -
24/03:30am 20.8 NW 3 4 1013.7 - - - - - - - - -
24/03:00am 20.6 W 2 3 1013.7 - - - - - - - - -
24/02:30am 19.9 NW 3 4 1013.8 - - - - - - - - -
24/02:00am 20.6 WNW 1 3 1013.9 - - - - - - - - -
24/01:30am 20.3 W 2 3 1014.0 - - - - - - - - -
24/01:00am 21.4 NW 2 4 1014.0 - - - - - - - - -
24/12:30am 20.6 WNW 3 4 1014.1 - - - - - - - - -
24/12:00am 21.8 NW 1 2 1014.2 - - - - - - - - -
 
Date/Time
EST
Temp
°C
Wind Pressure Rain since
9am
mm
Weather Cloud Vis
km
Sea
Height
m
Swell
Dir  Spd
kts
Gust
kts
hPa Trend Height
m
Period
s
Dir
23/11:30pm 21.8 NW 2 2 1014.1 - - - - - - - - -
23/11:00pm 20.4 WNW 3 4 1014.2 - - - - - - - - -
23/10:30pm 21.4 NW 1 2 1014.3 - - - - - - - - -
23/10:00pm 21.4 NW 1 2 1014.2 - - - - - - - - -
23/09:30pm 21.2 NW 2 3 1014.1 - - - - - - - - -
23/09:00pm 22.6 NNW 1 3 1014.0 - - - - - - - - -
23/08:30pm 21.9 NNW 2 3 1013.9 - - - - - - - - -
23/08:00pm 23.2 N 4 5 1013.6 - - - - - - - - -
23/07:30pm 23.3 N 5 7 1013.3 - - - - - - - - -
23/07:00pm 23.1 N 4 7 1012.9 - - - - - - - - -
23/06:30pm 23.2 NNE 5 7 1012.7 - - - - - - - - -
23/06:00pm 23.5 NE 3 7 1012.5 - - - - - - - - -
23/05:30pm 23.7 NE 3 10 1012.4 - - - - - - - - -
23/05:00pm 23.9 NE 6 10 1012.3 - - - - - - - - -
23/04:30pm 23.8 NE 7 11 1012.1 - - - - - - - - -
23/04:00pm 23.9 NE 7 11 1012.2 - - - - - - - - -
23/03:30pm 24.1 NE 5 11 1012.3 - - - - - - - - -
23/03:00pm 23.9 NNE 7 11 1012.5 - - - - - - - - -
23/02:30pm 24.0 NE 4 8 1012.7 - - - - - - - - -
23/02:00pm 23.8 ENE 5 8 1012.9 - - - - - - - - -
23/01:30pm 23.4 ENE 6 8 1013.4 - - - - - - - - -
23/01:00pm 23.2 ENE 6 7 1013.8 - - - - - - - - -
23/12:30pm 23.1 E 6 7 1014.1 - - - - - - - - -
23/12:00pm 23.1 E 6 7 1014.5 - - - - - - - - -
23/11:30am 22.9 ESE 6 7 1014.8 - - - - - - - - -
23/11:00am 22.9 ESE 5 6 1015.2 - - - - - - - - -
23/10:30am 22.7 SE 4 5 1015.8 - - - - - - - - -
23/10:00am 22.4 SE 2 3 1015.9 - - - - - - - - -
23/09:30am 21.6 SSW 1 2 1015.7 - - - - - - - - -
23/09:00am 21.0 SSW 2 3 1015.9 - - - - - - - - -
23/08:30am 20.8 S 3 4 1015.6 - - - - - - - - -
23/08:00am 20.3 SW 2 4 1015.4 - - - - - - - - -
23/07:30am 20.6 NW 3 3 1015.2 - - - - - - - - -
23/07:00am 19.3 WNW 2 3 1014.9 - - - - - - - - -
23/06:30am 20.1 WNW 3 4 1014.5 - - - - - - - - -
23/06:00am 19.2 WNW 2 4 1014.0 - - - - - - - - -
23/05:30am 19.7 WNW 2 3 1013.7 - - - - - - - - -
23/05:00am 19.3 W 2 4 1013.7 - - - - - - - - -
23/04:30am 20.9 CALM 0 1 1013.6 - - - - - - - - -
23/04:00am 20.8 NW 1 2 1013.6 - - - - - - - - -
23/03:30am 20.4 NW 2 3 1013.4 - - - - - - - - -
23/03:00am 20.3 NW 3 4 1013.4 - - - - - - - - -
23/02:30am 19.6 WNW 3 4 1013.5 - - - - - - - - -
23/02:00am 19.9 W 3 3 1013.8 - - - - - - - - -
23/01:30am 20.5 WNW 1 2 1014.1 - - - - - - - - -
23/01:00am 20.4 WNW 1 3 1014.2 - - - - - - - - -
23/12:30am 20.3 NW 2 2 1014.3 - - - - - - - - -
23/12:00am 20.4 W 2 3 1014.5 - - - - - - - - -
 
Date/Time
EST
Temp
°C
Wind Pressure Rain since
9am
mm
Weather Cloud Vis
km
Sea
Height
m
Swell
Dir  Spd
kts
Gust
kts
hPa Trend Height
m
Period
s
Dir
22/11:30pm 20.7 WNW 1 3 1014.5 - - - - - - - - -
22/11:00pm 21.4 NW 1 2 1014.6 - - - - - - - - -
22/10:30pm 21.6 NW 2 3 1014.7 - - - - - - - - -
22/10:00pm 22.5 N 2 2 1014.7 - - - - - - - - -
22/09:30pm 22.5 N 1 3 1014.7 - - - - - - - - -
22/09:00pm 22.3 NNW 2 3 1014.8 - - - - - - - - -
22/08:30pm 22.5 N 2 4 1014.9 - - - - - - - - -
22/08:00pm 22.8 ENE 2 4 1014.8 - - - - - - - - -
22/07:30pm 22.9 ENE 3 6 1014.6 - - - - - - - - -
22/07:00pm 22.9 ENE 2 4 1014.4 - - - - - - - - -
22/06:30pm 22.9 NNE 2 5 1014.2 - - - - - - - - -
22/06:00pm 23.1 ENE 6 8 1014.0 - - - - - - - - -
22/05:30pm 23.2 ENE 6 8 1014.0 - - - - - - - - -
22/05:00pm 23.4 ENE 6 7 1013.9 - - - - - - - - -
22/04:30pm 23.3 ENE 6 9 1013.9 - - - - - - - - -
22/04:00pm 23.3 ENE 5 7 1013.8 - - - - - - - - -
22/03:30pm 23.1 E 4 5 1013.8 - - - - - - - - -
22/03:00pm 23.1 E 4 5 1014.0 - - - - - - - - -
22/02:30pm 22.8 E 5 6 1014.2 - - - - - - - - -
22/02:00pm 23.0 E 4 5 1014.4 - - - - - - - - -
22/01:30pm 22.8 E 3 4 1014.9 - - - - - - - - -
22/01:00pm 22.8 ESE 4 5 1015.3 - - - - - - - - -
22/12:30pm 22.8 E 3 4 1015.6 - - - - - - - - -
22/12:00pm 22.5 ESE 4 5 1016.0 - - - - - - - - -
22/11:30am 22.6 SE 2 3 1016.3 - - - - - - - - -
22/11:00am 22.3 SE 5 7 1016.6 - - - - - - - - -
22/10:30am 22.2 SE 5 6 1017.0 - - - - - - - - -
22/10:00am 22.1 SSE 7 10 1017.2 - - - - - - - - -
22/09:30am 21.9 SSE 7 9 1017.2 - - - - - - - - -
22/09:00am 21.6 SSE 7 9 1017.0 - - - - - - - - -
22/08:30am 21.4 SSE 9 10 1017.1 - - - - - - - - -
22/08:00am 21.4 S 6 8 1016.8 - - - - - - - - -
22/07:30am 21.3 S 6 8 1016.5 - - - - - - - - -
22/07:00am 21.2 S 5 7 1016.3 - - - - - - - - -
22/06:30am 21.4 SSE 6 8 1015.9 - - - - - - - - -
22/06:00am 21.6 SSE 7 9 1015.8 - - - - - - - - -
22/05:30am 21.6 SSE 8 10 1015.5 - - - - - - - - -
22/05:00am 21.9 SSE 9 10 1015.4 - - - - - - - - -
22/04:30am 21.9 SSE 8 9 1015.2 - - - - - - - - -
22/04:00am 22.1 SSE 7 8 1015.3 - - - - - - - - -
22/03:30am 22.1 SE 7 8 1015.3 - - - - - - - - -
22/03:00am 22.4 SE 7 9 1015.6 - - - - - - - - -

Other Formats:

Comma delimited format used in spreadsheet applications
http://www.bom.gov.au/fwo/IDQ60701/IDQ60701.94297.axf

JavaScript Object Notation format (JSON) in row-major order
http://www.bom.gov.au/fwo/IDQ60701/IDQ60701.94297.json